Time;durP1;ratioP1;P1;durP2;ratioP2;P2;SDS_P1;SDS_P2;PMS_P1;PMS_P2;Temp;Humidity;BMP_temperature;BMP_pressure;BME280_temperature;BME280_humidity;BME280_pressure;Samples;Min_cycle;Max_cycle;Signal;HPM_P1;HPM_P2
2023/08/08 00:01:34;;;;;;;9.33;2.80;;;14.00;80.90;;;;;;5005594;28;20054;-73
2023/08/08 00:04:01;;;;;;;6.32;2.63;;;14.00;80.90;;;;;;5006242;28;20783;-73
2023/08/08 00:06:28;;;;;;;5.97;2.50;;;14.00;81.00;;;;;;4989891;28;20047;-74
2023/08/08 00:08:55;;;;;;;7.72;3.35;;;14.00;81.20;;;;;;5005286;28;20057;-73
2023/08/08 00:11:23;;;;;;;7.20;2.90;;;14.00;81.40;;;;;;5007137;28;20069;-74
2023/08/08 00:13:50;;;;;;;6.77;2.70;;;14.00;81.50;;;;;;5005671;28;20070;-73
2023/08/08 00:16:17;;;;;;;6.47;2.90;;;14.00;81.50;;;;;;4998972;28;20286;-73
2023/08/08 00:18:44;;;;;;;5.78;2.90;;;14.00;81.60;;;;;;4993453;28;20547;-74
2023/08/08 00:21:11;;;;;;;5.85;2.90;;;14.00;81.50;;;;;;4989422;28;20137;-74
2023/08/08 00:23:38;;;;;;;6.75;2.50;;;14.00;81.50;;;;;;5003615;28;20054;-73
2023/08/08 00:26:05;;;;;;;8.90;2.90;;;14.00;81.60;;;;;;4989530;28;20132;-73
2023/08/08 00:28:33;;;;;;;6.38;2.80;;;14.00;81.60;;;;;;5025500;28;20358;-73
2023/08/08 00:31:00;;;;;;;5.55;2.40;;;14.10;81.70;;;;;;5009027;28;20121;-73
2023/08/08 00:33:27;;;;;;;6.07;2.90;;;14.00;81.70;;;;;;5026001;28;20137;-73
2023/08/08 00:35:54;;;;;;;5.93;2.75;;;14.10;82.00;;;;;;4988617;28;20138;-73
2023/08/08 00:38:20;;;;;;;6.80;3.10;;;14.10;82.20;;;;;;4973205;28;20050;-73
2023/08/08 00:40:47;;;;;;;8.10;3.20;;;14.10;82.20;;;;;;4993979;28;20246;-73
2023/08/08 00:43:14;;;;;;;6.68;3.15;;;14.10;82.20;;;;;;5006312;28;20047;-74
2023/08/08 00:45:44;;;;;;;5.93;2.63;;;14.10;82.20;;;;;;4987190;28;20385;-73
2023/08/08 00:48:11;;;;;;;5.10;2.58;;;14.10;82.50;;;;;;5009401;28;20050;-73
2023/08/08 00:50:38;;;;;;;6.50;2.83;;;14.20;82.50;;;;;;5021866;28;20138;-73
2023/08/08 00:53:05;;;;;;;8.57;2.97;;;14.10;82.60;;;;;;5005989;28;20273;-73
2023/08/08 00:55:33;;;;;;;5.60;2.67;;;14.10;82.60;;;;;;4979730;28;20133;-73
2023/08/08 00:58:00;;;;;;;5.88;2.72;;;14.10;82.70;;;;;;4989506;28;20054;-74
2023/08/08 01:00:27;;;;;;;6.55;3.20;;;14.10;82.70;;;;;;4989214;28;20145;-74
2023/08/08 01:02:55;;;;;;;5.13;2.40;;;14.10;82.80;;;;;;4991261;28;20556;-73
2023/08/08 01:05:22;;;;;;;5.75;2.35;;;14.10;82.90;;;;;;5000189;28;20297;-73
2023/08/08 01:07:58;;;;;;;6.68;3.00;;;14.20;83.00;;;;;;4992797;28;20039;-74
2023/08/08 01:10:29;;;;;;;5.60;2.92;;;14.20;82.90;;;;;;5008625;28;20050;-73
2023/08/08 01:12:59;;;;;;;8.32;3.30;;;14.20;82.90;;;;;;4989918;28;20427;-74
2023/08/08 01:15:27;;;;;;;6.33;2.90;;;14.20;83.00;;;;;;4998818;28;20467;-73
2023/08/08 01:17:56;;;;;;;8.93;3.17;;;14.20;83.00;;;;;;5009112;28;20258;-73
2023/08/08 01:20:23;;;;;;;8.07;3.05;;;14.20;83.00;;;;;;4992235;28;20137;-72
2023/08/08 01:23:10;;;;;;;6.97;3.28;;;14.20;83.00;;;;;;4994705;28;20125;-73
2023/08/08 01:25:40;;;;;;;6.70;2.72;;;14.20;83.20;;;;;;5024756;28;20082;-73
2023/08/08 01:28:08;;;;;;;6.03;2.90;;;14.20;83.10;;;;;;5009690;28;20137;-74
2023/08/08 01:30:35;;;;;;;8.27;2.55;;;14.20;83.10;;;;;;5011446;28;21365;-74
2023/08/08 01:33:02;;;;;;;8.75;2.83;;;14.20;83.20;;;;;;4989020;28;20053;-72
2023/08/08 01:35:32;;;;;;;5.82;2.30;;;14.20;83.00;;;;;;4989309;28;20115;-73
2023/08/08 01:38:06;;;;;;;7.15;3.30;;;14.20;83.10;;;;;;5024834;28;20058;-73
2023/08/08 01:40:35;;;;;;;5.93;3.00;;;14.20;83.20;;;;;;5022595;28;20500;-74
2023/08/08 01:43:04;;;;;;;6.50;2.95;;;14.20;83.20;;;;;;5008114;28;20258;-73
2023/08/08 01:45:32;;;;;;;6.55;3.10;;;14.20;83.30;;;;;;5005267;28;20054;-73
2023/08/08 01:47:59;;;;;;;7.78;3.25;;;14.20;83.40;;;;;;4990988;28;20050;-73
2023/08/08 01:50:26;;;;;;;5.80;2.85;;;14.20;83.50;;;;;;5007875;28;20429;-74
2023/08/08 01:52:53;;;;;;;7.87;3.03;;;14.20;83.60;;;;;;4974264;28;20043;-74
2023/08/08 01:55:21;;;;;;;7.88;3.25;;;14.20;83.50;;;;;;4988963;28;20653;-73
2023/08/08 01:57:48;;;;;;;7.10;2.92;;;14.30;83.60;;;;;;4989904;28;20083;-72
2023/08/08 02:00:16;;;;;;;5.88;3.15;;;14.30;83.60;;;;;;4983098;28;20066;-74
2023/08/08 02:02:43;;;;;;;7.75;3.00;;;14.30;83.70;;;;;;5007971;28;20054;-73
2023/08/08 02:05:10;;;;;;;6.77;2.50;;;14.30;83.60;;;;;;5009317;28;20065;-73
2023/08/08 02:07:37;;;;;;;6.72;3.05;;;14.30;83.50;;;;;;5007685;28;20333;-73
2023/08/08 02:10:04;;;;;;;5.60;3.25;;;14.30;83.60;;;;;;4996545;28;20073;-73
2023/08/08 02:12:32;;;;;;;9.02;3.28;;;14.30;83.60;;;;;;4987755;28;20549;-74
2023/08/08 02:15:00;;;;;;;7.63;3.33;;;14.30;83.70;;;;;;4999485;28;20123;-72
2023/08/08 02:17:28;;;;;;;6.70;3.10;;;14.30;83.70;;;;;;4987311;28;20054;-74
2023/08/08 02:19:55;;;;;;;7.07;2.75;;;14.30;83.70;;;;;;4988430;28;20397;-73
2023/08/08 02:22:23;;;;;;;6.13;2.95;;;14.30;83.70;;;;;;4987478;28;20399;-73
2023/08/08 02:24:50;;;;;;;6.75;3.22;;;14.30;83.70;;;;;;5004942;28;20692;-73
2023/08/08 02:27:17;;;;;;;9.45;3.50;;;14.30;83.90;;;;;;4991735;28;20488;-73
2023/08/08 02:29:43;;;;;;;9.73;3.70;;;14.30;83.90;;;;;;5007660;28;20055;-74
2023/08/08 02:32:10;;;;;;;6.53;3.13;;;14.30;84.20;;;;;;4991142;28;20290;-74
2023/08/08 02:34:39;;;;;;;7.68;3.60;;;14.30;84.20;;;;;;4991818;28;20090;-73
2023/08/08 02:37:07;;;;;;;8.50;3.15;;;14.30;84.30;;;;;;4995280;28;20050;-73
2023/08/08 02:39:34;;;;;;;7.15;3.22;;;14.30;84.30;;;;;;4972106;28;20093;-73
2023/08/08 02:42:01;;;;;;;8.07;3.20;;;14.30;84.40;;;;;;4970888;28;20543;-73
2023/08/08 02:44:29;;;;;;;9.50;3.60;;;14.30;84.50;;;;;;5004606;28;20282;-74
2023/08/08 02:46:56;;;;;;;9.57;3.88;;;14.40;84.70;;;;;;4988164;28;20047;-74
2023/08/08 02:49:23;;;;;;;7.63;3.42;;;14.40;84.80;;;;;;4987542;28;20051;-74
2023/08/08 02:51:51;;;;;;;10.77;4.03;;;14.40;84.80;;;;;;4987006;28;20050;-73
2023/08/08 02:54:18;;;;;;;9.77;3.30;;;14.40;84.90;;;;;;4987880;28;20141;-74
2023/08/08 02:56:45;;;;;;;6.90;3.15;;;14.40;84.90;;;;;;4986778;28;20715;-73
2023/08/08 02:59:13;;;;;;;6.13;2.85;;;14.40;85.00;;;;;;5007198;28;20494;-73
2023/08/08 03:01:40;;;;;;;7.57;3.20;;;14.40;84.80;;;;;;4990001;28;20043;-74
2023/08/08 03:04:14;;;;;;;8.23;3.50;;;14.30;84.70;;;;;;5007192;28;20051;-74
2023/08/08 03:06:41;;;;;;;8.70;3.40;;;14.30;84.70;;;;;;4985189;28;20051;-72
2023/08/08 03:09:10;;;;;;;8.07;3.60;;;14.30;84.70;;;;;;4987847;28;20339;-73
2023/08/08 03:11:41;;;;;;;8.60;3.13;;;14.30;84.80;;;;;;4970694;28;20050;-73
2023/08/08 03:14:09;;;;;;;7.63;3.33;;;14.30;84.70;;;;;;4989377;28;20528;-74
2023/08/08 03:16:38;;;;;;;9.00;3.70;;;14.30;84.70;;;;;;4971307;28;20516;-74
2023/08/08 03:19:06;;;;;;;9.13;3.20;;;14.30;84.60;;;;;;4979130;28;20494;-73
2023/08/08 03:21:33;;;;;;;7.63;3.55;;;14.30;84.80;;;;;;4989783;28;20246;-73
2023/08/08 03:24:00;;;;;;;11.00;3.70;;;14.30;84.80;;;;;;5023653;28;20046;-73
2023/08/08 03:26:28;;;;;;;7.75;3.60;;;14.30;84.80;;;;;;4991040;28;20081;-73
2023/08/08 03:28:55;;;;;;;5.97;2.85;;;14.30;84.80;;;;;;5006938;28;20452;-73
2023/08/08 03:31:30;;;;;;;7.80;3.20;;;14.30;84.80;;;;;;5006317;28;20070;-72
2023/08/08 03:33:57;;;;;;;9.07;3.17;;;14.30;84.60;;;;;;5004207;28;20342;-74
2023/08/08 03:36:25;;;;;;;7.43;2.70;;;14.30;84.70;;;;;;4990789;28;20518;-72
2023/08/08 03:38:51;;;;;;;8.40;2.70;;;14.30;84.70;;;;;;5006463;28;20524;-74
2023/08/08 03:41:18;;;;;;;7.82;2.63;;;14.30;84.70;;;;;;4989787;28;20153;-72
2023/08/08 03:43:47;;;;;;;7.57;3.00;;;14.20;84.60;;;;;;5002566;28;20055;-74
2023/08/08 03:46:13;;;;;;;7.10;2.22;;;14.20;84.70;;;;;;4970996;28;20278;-73
2023/08/08 03:48:42;;;;;;;9.50;2.28;;;14.20;84.70;;;;;;4987224;28;20051;-72
2023/08/08 03:51:08;;;;;;;5.25;2.40;;;14.20;84.70;;;;;;4977422;28;20560;-73
2023/08/08 03:53:35;;;;;;;6.90;2.30;;;14.20;84.50;;;;;;4993336;28;20053;-73
2023/08/08 03:56:02;;;;;;;7.57;2.60;;;14.20;84.50;;;;;;4993845;28;20554;-73
2023/08/08 03:58:29;;;;;;;6.00;2.40;;;14.20;84.50;;;;;;4993605;28;20266;-72
2023/08/08 04:00:58;;;;;;;6.65;2.35;;;14.20;84.30;;;;;;4992567;28;20057;-74
2023/08/08 04:03:25;;;;;;;7.20;1.90;;;14.10;84.20;;;;;;4993673;28;20046;-73
2023/08/08 04:05:51;;;;;;;6.18;2.10;;;14.10;84.00;;;;;;5010100;28;20544;-73
2023/08/08 04:08:18;;;;;;;6.20;1.50;;;14.10;84.00;;;;;;4993532;28;20058;-74
2023/08/08 04:10:47;;;;;;;4.85;1.65;;;14.10;83.80;;;;;;5007270;28;20289;-73
2023/08/08 04:13:14;;;;;;;4.85;1.45;;;14.10;83.80;;;;;;4993275;28;20054;-73
2023/08/08 04:15:42;;;;;;;6.57;1.60;;;14.10;83.70;;;;;;5008156;28;20046;-73
2023/08/08 04:18:10;;;;;;;5.85;1.40;;;14.10;83.60;;;;;;4993488;28;20049;-72
2023/08/08 04:20:37;;;;;;;6.33;1.50;;;14.10;83.50;;;;;;5008692;28;20473;-74
2023/08/08 04:23:05;;;;;;;4.90;1.40;;;14.00;83.40;;;;;;5010220;28;20833;-73
2023/08/08 04:25:31;;;;;;;4.55;1.40;;;14.00;83.30;;;;;;5009388;28;20058;-72
2023/08/08 04:27:58;;;;;;;6.13;1.33;;;14.00;83.00;;;;;;5002994;28;20062;-73
2023/08/08 04:30:25;;;;;;;6.15;1.45;;;14.00;82.90;;;;;;5000479;28;20054;-73
2023/08/08 04:32:52;;;;;;;3.97;1.20;;;14.00;82.80;;;;;;4992299;28;20517;-74
2023/08/08 04:35:20;;;;;;;10.23;1.45;;;14.00;82.60;;;;;;4998336;28;20270;-72
2023/08/08 04:37:47;;;;;;;4.72;1.30;;;14.00;82.50;;;;;;5006610;28;20536;-74
2023/08/08 04:40:14;;;;;;;5.90;1.30;;;14.00;82.50;;;;;;5000861;28;20049;-73
2023/08/08 04:42:42;;;;;;;5.18;1.02;;;14.00;82.20;;;;;;5001487;28;20052;-74
2023/08/08 04:45:09;;;;;;;7.47;1.50;;;14.00;82.10;;;;;;5010628;28;20057;-73
2023/08/08 04:47:36;;;;;;;4.57;1.23;;;14.00;82.00;;;;;;4997231;28;20290;-73
2023/08/08 04:50:03;;;;;;;3.60;1.08;;;14.00;82.00;;;;;;4989694;28;20110;-73
2023/08/08 04:52:32;;;;;;;5.68;1.25;;;14.00;82.00;;;;;;4990318;28;20166;-72
2023/08/08 04:54:58;;;;;;;3.55;1.00;;;14.00;81.90;;;;;;4998760;28;20050;-72
2023/08/08 04:57:25;;;;;;;6.20;1.07;;;14.00;81.70;;;;;;4998989;28;20145;-73
2023/08/08 04:59:52;;;;;;;5.50;0.90;;;14.00;81.50;;;;;;4988731;28;20350;-74
2023/08/08 05:02:19;;;;;;;4.85;0.90;;;14.00;81.60;;;;;;5006419;28;20602;-73
2023/08/08 05:04:47;;;;;;;6.57;0.98;;;14.00;81.50;;;;;;5007520;28;20047;-73
2023/08/08 05:07:14;;;;;;;4.95;1.10;;;14.00;81.50;;;;;;5008155;28;20517;-73
2023/08/08 05:09:42;;;;;;;7.93;0.77;;;14.00;81.50;;;;;;4992153;28;20054;-73
2023/08/08 05:12:10;;;;;;;6.00;1.05;;;14.00;81.70;;;;;;5006111;28;20764;-72
2023/08/08 05:14:37;;;;;;;6.80;1.08;;;14.00;81.90;;;;;;5007338;28;20042;-72
2023/08/08 05:17:04;;;;;;;6.70;0.90;;;14.00;82.00;;;;;;5004422;28;20249;-73
2023/08/08 05:19:31;;;;;;;9.70;1.38;;;14.00;82.20;;;;;;5000679;28;20052;-72
2023/08/08 05:21:58;;;;;;;4.60;0.90;;;14.10;82.10;;;;;;5006069;28;20050;-73
2023/08/08 05:24:26;;;;;;;5.78;0.80;;;14.10;82.40;;;;;;4989689;28;20273;-73
2023/08/08 05:26:54;;;;;;;9.13;1.00;;;14.10;82.50;;;;;;5006794;28;20516;-72
2023/08/08 05:29:21;;;;;;;2.75;0.52;;;14.10;82.30;;;;;;5023538;28;20078;-73
2023/08/08 05:31:48;;;;;;;6.95;1.20;;;14.20;81.90;;;;;;5007236;28;20074;-73
2023/08/08 05:34:15;;;;;;;7.63;1.10;;;14.20;82.00;;;;;;5006387;28;20198;-73
2023/08/08 05:36:42;;;;;;;5.53;1.10;;;14.20;82.20;;;;;;5007427;28;20346;-74
2023/08/08 05:39:09;;;;;;;4.47;0.70;;;14.20;82.30;;;;;;5005815;28;20129;-73
2023/08/08 05:41:36;;;;;;;8.13;0.80;;;14.20;82.40;;;;;;5003752;28;20061;-73
2023/08/08 05:44:05;;;;;;;4.18;0.57;;;14.30;82.20;;;;;;5001937;28;20193;-73
2023/08/08 05:46:32;;;;;;;5.53;0.80;;;14.30;82.30;;;;;;5009681;28;20068;-74
2023/08/08 05:49:01;;;;;;;5.38;0.80;;;14.30;82.30;;;;;;5005424;28;20270;-73
2023/08/08 05:51:28;;;;;;;4.63;0.90;;;14.30;82.20;;;;;;5008025;28;20416;-73
2023/08/08 05:53:55;;;;;;;3.92;0.80;;;14.30;81.80;;;;;;5009554;28;20065;-73
2023/08/08 05:56:22;;;;;;;5.55;0.98;;;14.30;81.60;;;;;;5008338;28;21066;-73
2023/08/08 05:58:49;;;;;;;3.93;0.70;;;14.30;81.10;;;;;;5003808;28;20046;-73
2023/08/08 06:01:17;;;;;;;3.97;0.85;;;14.30;81.10;;;;;;5002245;28;20282;-73
2023/08/08 06:03:44;;;;;;;4.43;0.88;;;14.30;81.20;;;;;;5001266;28;20108;-73
2023/08/08 06:06:11;;;;;;;2.67;0.70;;;14.30;81.30;;;;;;4996138;28;20046;-73
2023/08/08 06:08:39;;;;;;;4.53;0.85;;;14.30;81.60;;;;;;5004102;28;20054;-73
2023/08/08 06:11:06;;;;;;;5.83;0.87;;;14.30;81.80;;;;;;5005646;28;20054;-73
2023/08/08 06:13:33;;;;;;;5.43;0.82;;;14.30;82.00;;;;;;5005747;28;20392;-72
2023/08/08 06:16:01;;;;;;;11.13;1.50;;;14.40;82.10;;;;;;5003963;28;20511;-72
2023/08/08 06:18:29;;;;;;;5.40;0.90;;;14.40;82.00;;;;;;5003535;28;20055;-72
2023/08/08 06:20:56;;;;;;;8.10;1.20;;;14.50;81.90;;;;;;5000678;28;20094;-72
2023/08/08 06:23:23;;;;;;;5.87;1.00;;;14.50;82.00;;;;;;5004855;28;20054;-72
2023/08/08 06:25:50;;;;;;;4.93;0.68;;;14.60;81.90;;;;;;5007932;28;20668;-73
2023/08/08 06:28:18;;;;;;;2.70;0.52;;;14.60;81.90;;;;;;4999751;28;20046;-73
2023/08/08 06:30:49;;;;;;;8.20;0.90;;;14.70;82.00;;;;;;5004334;28;20130;-73
2023/08/08 06:33:17;;;;;;;6.43;1.00;;;14.80;81.80;;;;;;5007007;28;20042;-73
2023/08/08 06:35:46;;;;;;;7.20;1.07;;;14.80;81.50;;;;;;5007032;28;20071;-73
2023/08/08 06:38:13;;;;;;;5.80;0.80;;;14.80;81.60;;;;;;5006446;28;20254;-73
2023/08/08 06:40:40;;;;;;;4.40;0.95;;;14.90;81.80;;;;;;5002750;28;20064;-72
2023/08/08 06:43:07;;;;;;;4.05;0.50;;;15.00;81.90;;;;;;5001948;28;20050;-73
2023/08/08 06:45:33;;;;;;;9.05;1.15;;;15.00;81.60;;;;;;5004899;28;20380;-74
2023/08/08 06:48:01;;;;;;;6.13;1.27;;;15.00;81.70;;;;;;5005026;28;20303;-73
2023/08/08 06:50:28;;;;;;;5.93;0.98;;;15.10;81.70;;;;;;5004485;28;20278;-73
2023/08/08 06:52:56;;;;;;;5.45;0.80;;;15.20;81.30;;;;;;5006775;28;20173;-72
2023/08/08 06:55:24;;;;;;;6.25;0.80;;;15.20;81.10;;;;;;5007047;28;20497;-73
2023/08/08 06:57:50;;;;;;;6.63;0.70;;;15.30;80.80;;;;;;5006575;28;20444;-73
2023/08/08 07:00:18;;;;;;;4.80;1.00;;;15.40;80.80;;;;;;5006587;28;20062;-73
2023/08/08 07:02:45;;;;;;;5.95;0.70;;;15.40;79.40;;;;;;5003874;28;20744;-73
2023/08/08 07:05:12;;;;;;;1.63;0.30;;;15.50;78.60;;;;;;5006676;28;20058;-74
2023/08/08 07:07:38;;;;;;;4.10;0.60;;;15.60;77.80;;;;;;5006582;28;20158;-73
2023/08/08 07:10:08;;;;;;;3.38;0.52;;;15.60;77.20;;;;;;5006201;28;20089;-73
2023/08/08 07:12:35;;;;;;;5.03;0.50;;;15.60;77.00;;;;;;5004013;28;20436;-74
2023/08/08 07:15:01;;;;;;;2.78;0.55;;;15.60;77.20;;;;;;5005560;28;20790;-73
2023/08/08 07:17:28;;;;;;;6.18;0.90;;;15.70;76.50;;;;;;5014464;28;20059;-73
2023/08/08 07:19:56;;;;;;;3.50;0.57;;;15.80;76.20;;;;;;5006510;28;20440;-74
2023/08/08 07:22:23;;;;;;;4.25;0.60;;;15.80;75.60;;;;;;5002562;28;20061;-73
2023/08/08 07:24:50;;;;;;;5.00;0.80;;;15.80;74.60;;;;;;5004964;28;20064;-73
2023/08/08 07:27:18;;;;;;;5.22;0.60;;;15.90;74.60;;;;;;5005786;28;20250;-73
2023/08/08 07:29:45;;;;;;;4.25;0.80;;;16.00;74.40;;;;;;5002096;28;20141;-73
2023/08/08 07:32:12;;;;;;;5.07;0.80;;;16.00;74.00;;;;;;4999967;28;21228;-74
2023/08/08 07:34:39;;;;;;;6.38;0.77;;;16.00;74.80;;;;;;5003984;28;20881;-72
2023/08/08 07:37:06;;;;;;;4.60;0.77;;;16.00;74.30;;;;;;5001401;28;20065;-74
2023/08/08 07:39:33;;;;;;;6.32;0.70;;;16.10;73.20;;;;;;5006303;28;20317;-74
2023/08/08 07:42:00;;;;;;;5.80;0.63;;;16.10;72.40;;;;;;5004668;28;20050;-73
2023/08/08 07:44:28;;;;;;;3.45;0.60;;;16.20;72.30;;;;;;5003119;28;20133;-73
2023/08/08 07:46:55;;;;;;;4.38;0.82;;;16.20;71.30;;;;;;5002076;28;20819;-72
2023/08/08 07:49:22;;;;;;;4.67;0.70;;;16.30;70.40;;;;;;5002548;28;20054;-74
2023/08/08 07:51:49;;;;;;;8.40;1.00;;;16.40;70.60;;;;;;4995772;28;20282;-74
2023/08/08 07:54:16;;;;;;;3.72;0.70;;;16.40;71.60;;;;;;4999366;28;20042;-74
2023/08/08 07:56:43;;;;;;;3.88;0.43;;;16.40;70.50;;;;;;5004782;28;20152;-74
2023/08/08 07:59:10;;;;;;;4.25;0.60;;;16.40;70.10;;;;;;4999122;28;20051;-74
2023/08/08 08:01:38;;;;;;;5.80;0.70;;;16.40;70.50;;;;;;5006203;28;20046;-74
2023/08/08 08:04:05;;;;;;;3.00;0.50;;;16.50;70.30;;;;;;5005557;28;20263;-74
2023/08/08 08:06:32;;;;;;;3.75;0.50;;;16.50;69.90;;;;;;5003362;28;20055;-74
2023/08/08 08:08:59;;;;;;;2.25;0.50;;;16.50;70.30;;;;;;5000277;28;20149;-75
2023/08/08 08:11:26;;;;;;;4.78;0.70;;;16.40;70.20;;;;;;5003828;28;20181;-75
2023/08/08 08:13:53;;;;;;;4.10;0.60;;;16.40;71.00;;;;;;4999702;28;20057;-74
2023/08/08 08:16:20;;;;;;;5.85;0.90;;;16.40;71.10;;;;;;5005077;28;20281;-74
2023/08/08 08:18:48;;;;;;;7.63;0.90;;;16.40;71.00;;;;;;4991924;28;20086;-74
2023/08/08 08:21:17;;;;;;;4.38;0.60;;;16.50;70.10;;;;;;4993217;28;20058;-73
2023/08/08 08:23:44;;;;;;;4.57;0.68;;;16.50;70.10;;;;;;5001942;28;20130;-74
2023/08/08 08:26:14;;;;;;;4.47;0.53;;;16.40;70.80;;;;;;5001973;28;20073;-74
2023/08/08 08:28:40;;;;;;;2.38;0.40;;;16.50;71.10;;;;;;5002215;28;20285;-74
2023/08/08 08:31:08;;;;;;;1.83;0.40;;;16.50;71.40;;;;;;4999463;28;20488;-75
2023/08/08 08:33:35;;;;;;;4.18;0.50;;;16.50;70.70;;;;;;5002796;28;20053;-73
2023/08/08 08:36:04;;;;;;;4.65;0.70;;;16.50;71.40;;;;;;5006389;28;20097;-74
2023/08/08 08:38:31;;;;;;;7.37;0.63;;;16.50;72.00;;;;;;4973535;28;20070;-74
2023/08/08 08:40:58;;;;;;;5.30;0.57;;;16.50;72.30;;;;;;5000202;28;20247;-73
2023/08/08 08:43:25;;;;;;;3.67;0.90;;;16.60;72.80;;;;;;5010673;28;20073;-75
2023/08/08 08:45:54;;;;;;;4.00;0.82;;;16.60;71.00;;;;;;5007474;28;20042;-75
2023/08/08 08:48:22;;;;;;;4.15;0.90;;;16.60;71.50;;;;;;5002736;28;20158;-76
2023/08/08 08:50:49;;;;;;;6.20;0.90;;;16.70;71.50;;;;;;5002256;28;20062;-76
2023/08/08 08:53:18;;;;;;;4.05;0.70;;;16.70;72.10;;;;;;5008590;28;20265;-76
2023/08/08 08:55:46;;;;;;;6.35;0.80;;;16.70;71.80;;;;;;5006663;28;20050;-74
2023/08/08 08:58:16;;;;;;;2.88;0.40;;;16.80;71.50;;;;;;5006919;28;20078;-73
2023/08/08 09:00:45;;;;;;;3.08;0.73;;;16.80;71.90;;;;;;5003926;28;20051;-74
2023/08/08 09:03:12;;;;;;;3.43;0.53;;;16.80;71.10;;;;;;5002129;28;20161;-73
2023/08/08 09:05:41;;;;;;;4.00;0.80;;;16.80;71.10;;;;;;5004830;28;20789;-73
2023/08/08 09:08:09;;;;;;;3.88;0.70;;;16.80;71.50;;;;;;5007095;28;20498;-74
2023/08/08 09:10:37;;;;;;;3.97;0.80;;;16.80;71.50;;;;;;5005602;28;20161;-73
2023/08/08 09:13:04;;;;;;;6.13;0.98;;;16.80;71.80;;;;;;5001108;28;20055;-72
2023/08/08 09:15:32;;;;;;;3.43;0.60;;;16.80;71.90;;;;;;4998937;28;20619;-72
2023/08/08 09:18:00;;;;;;;5.07;0.70;;;16.90;70.30;;;;;;4997428;28;20293;-73
2023/08/08 09:20:29;;;;;;;4.57;0.73;;;16.90;69.70;;;;;;4991677;28;20054;-73
2023/08/08 09:22:55;;;;;;;3.60;0.63;;;16.90;70.10;;;;;;4997947;28;20053;-73
2023/08/08 09:25:23;;;;;;;6.88;0.88;;;16.90;71.00;;;;;;4995867;28;20089;-73
2023/08/08 09:27:51;;;;;;;5.07;0.70;;;16.90;70.90;;;;;;5000969;28;20529;-74
2023/08/08 09:30:19;;;;;;;5.68;0.80;;;16.90;71.50;;;;;;5005991;28;20247;-74
2023/08/08 09:32:45;;;;;;;3.05;0.60;;;17.00;70.00;;;;;;5000685;28;20055;-74
2023/08/08 09:35:13;;;;;;;4.50;0.70;;;17.00;69.70;;;;;;5007137;28;20061;-74
2023/08/08 09:37:40;;;;;;;4.57;0.70;;;17.00;70.40;;;;;;4988131;28;21203;-74
2023/08/08 09:40:09;;;;;;;4.70;0.60;;;17.00;70.80;;;;;;5005738;28;20120;-74
2023/08/08 09:42:36;;;;;;;3.60;0.60;;;17.00;71.70;;;;;;5003773;28;20258;-74
2023/08/08 09:45:06;;;;;;;3.25;0.50;;;16.90;73.00;;;;;;5007097;28;20061;-73
2023/08/08 09:47:33;;;;;;;3.72;0.90;;;16.80;73.90;;;;;;5005352;28;20552;-73
2023/08/08 09:50:00;;;;;;;5.53;0.47;;;16.70;75.00;;;;;;5003169;28;20058;-73
2023/08/08 09:52:29;;;;;;;4.77;0.80;;;16.70;75.30;;;;;;5003454;28;20058;-73
2023/08/08 09:54:56;;;;;;;4.82;0.80;;;16.70;75.20;;;;;;5003367;28;20250;-73
2023/08/08 09:57:24;;;;;;;5.43;0.90;;;16.80;75.70;;;;;;5005091;28;20061;-73
2023/08/08 09:59:52;;;;;;;4.70;0.80;;;16.80;75.60;;;;;;5006614;28;20741;-74
2023/08/08 10:02:20;;;;;;;4.90;0.68;;;17.00;73.70;;;;;;5004914;28;20054;-73
2023/08/08 10:04:48;;;;;;;4.27;0.70;;;17.00;74.10;;;;;;5004749;28;20057;-74
2023/08/08 10:07:15;;;;;;;5.10;0.80;;;17.00;73.70;;;;;;5000116;28;20365;-74
2023/08/08 10:09:44;;;;;;;4.28;0.80;;;16.80;74.60;;;;;;5001677;28;20050;-75
2023/08/08 10:12:13;;;;;;;5.13;0.77;;;16.70;76.00;;;;;;5003091;28;20047;-74
2023/08/08 10:14:43;;;;;;;4.85;0.73;;;16.70;76.20;;;;;;5004457;28;20701;-73
2023/08/08 10:17:15;;;;;;;3.43;0.73;;;16.70;75.20;;;;;;5004078;28;20054;-74
2023/08/08 10:19:52;;;;;;;2.60;0.50;;;16.70;75.30;;;;;;5005737;28;20274;-74
2023/08/08 10:22:23;;;;;;;4.13;0.68;;;16.80;76.10;;;;;;5001406;28;20133;-74
2023/08/08 10:24:53;;;;;;;4.38;0.60;;;16.80;75.80;;;;;;5005492;28;20054;-73
2023/08/08 10:27:29;;;;;;;2.88;0.52;;;16.90;75.40;;;;;;5006294;28;20054;-73
2023/08/08 10:30:03;;;;;;;2.80;0.70;;;17.00;72.20;;;;;;5006658;28;20062;-73
2023/08/08 10:32:39;;;;;;;5.30;0.80;;;17.00;72.10;;;;;;5004674;28;20284;-74
2023/08/08 10:35:09;;;;;;;6.13;0.85;;;16.90;72.20;;;;;;5001307;28;20046;-74
2023/08/08 10:37:37;;;;;;;3.33;0.60;;;16.90;72.00;;;;;;5003718;28;20865;-73
2023/08/08 10:40:06;;;;;;;4.68;0.90;;;17.00;71.90;;;;;;5005478;28;20048;-73
2023/08/08 10:42:42;;;;;;;3.13;0.70;;;17.00;71.40;;;;;;5003059;28;20074;-74
2023/08/08 10:45:13;;;;;;;4.95;0.70;;;17.00;70.40;;;;;;5006329;28;20270;-73
2023/08/08 10:47:41;;;;;;;4.85;0.70;;;17.00;70.30;;;;;;5003732;28;20081;-73
2023/08/08 10:50:12;;;;;;;3.65;0.88;;;16.90;71.60;;;;;;5004397;28;20057;-73
2023/08/08 10:52:54;;;;;;;5.50;0.90;;;16.90;71.80;;;;;;5005812;28;20504;-74
2023/08/08 10:55:22;;;;;;;3.63;0.67;;;16.90;70.70;;;;;;5004623;28;20432;-73
2023/08/08 10:57:58;;;;;;;4.28;0.88;;;16.90;70.30;;;;;;5005458;28;20284;-73
2023/08/08 11:00:29;;;;;;;3.58;0.57;;;16.90;70.20;;;;;;5002436;28;20065;-73
2023/08/08 11:02:56;;;;;;;5.57;1.05;;;16.90;68.80;;;;;;4985951;28;20097;-73
2023/08/08 11:05:26;;;;;;;4.78;0.57;;;16.80;68.50;;;;;;4988033;28;20051;-72
2023/08/08 11:07:54;;;;;;;4.87;0.83;;;16.80;69.30;;;;;;4989267;28;20133;-73
2023/08/08 11:10:22;;;;;;;3.17;0.60;;;16.90;69.80;;;;;;4999993;28;20308;-73
2023/08/08 11:12:57;;;;;;;4.03;0.88;;;16.90;70.90;;;;;;4997160;28;20070;-73
2023/08/08 11:15:25;;;;;;;3.92;0.70;;;17.00;70.00;;;;;;4999975;28;20188;-74
2023/08/08 11:17:52;;;;;;;3.88;0.90;;;17.20;68.70;;;;;;4992034;28;20108;-73
2023/08/08 11:20:19;;;;;;;4.63;0.90;;;17.20;67.50;;;;;;4986699;28;20855;-74
2023/08/08 11:22:52;;;;;;;3.67;0.80;;;17.30;69.20;;;;;;5003629;28;20343;-72
2023/08/08 11:25:19;;;;;;;4.15;0.65;;;17.50;67.70;;;;;;5004048;28;20456;-73
2023/08/08 11:27:51;;;;;;;4.43;0.63;;;17.50;66.90;;;;;;5007237;28;20137;-73
2023/08/08 11:30:18;;;;;;;4.10;0.95;;;17.50;65.00;;;;;;5006914;28;20054;-72
2023/08/08 11:32:47;;;;;;;4.73;0.87;;;17.50;66.10;;;;;;5004327;28;20509;-73
2023/08/08 11:35:17;;;;;;;3.20;0.50;;;17.60;64.90;;;;;;5005584;28;20740;-73
2023/08/08 11:37:45;;;;;;;5.10;0.70;;;17.60;62.90;;;;;;5007377;28;20060;-74
2023/08/08 11:40:14;;;;;;;3.80;0.70;;;17.70;62.00;;;;;;5001353;28;20061;-73
2023/08/08 11:42:42;;;;;;;3.75;0.85;;;17.70;60.90;;;;;;4990191;28;20165;-73
2023/08/08 11:45:10;;;;;;;5.37;0.90;;;17.70;60.50;;;;;;5006736;28;20051;-73
2023/08/08 11:47:39;;;;;;;4.60;0.90;;;17.70;62.00;;;;;;5004103;28;20692;-73
2023/08/08 11:50:08;;;;;;;5.70;0.88;;;17.70;64.10;;;;;;5004351;28;20051;-73
2023/08/08 11:52:41;;;;;;;3.75;0.70;;;17.80;61.50;;;;;;5004827;28;20162;-74
2023/08/08 11:55:09;;;;;;;4.75;1.13;;;17.80;62.30;;;;;;4992904;28;20054;-74
2023/08/08 11:57:38;;;;;;;2.33;0.60;;;17.80;62.00;;;;;;5001946;28;20046;-74
2023/08/08 12:00:07;;;;;;;5.60;0.98;;;17.70;61.50;;;;;;5003295;28;20360;-73
2023/08/08 12:02:40;;;;;;;3.58;0.90;;;17.80;61.70;;;;;;5005478;28;20054;-73
2023/08/08 12:05:09;;;;;;;3.90;0.60;;;17.80;62.00;;;;;;5005554;28;20134;-73
2023/08/08 12:07:37;;;;;;;5.03;0.65;;;17.80;62.60;;;;;;4986423;28;20053;-73
2023/08/08 12:10:05;;;;;;;3.23;0.70;;;17.80;63.60;;;;;;5002009;28;20058;-73
2023/08/08 12:12:35;;;;;;;3.92;0.70;;;17.90;63.60;;;;;;5009323;28;20401;-74
2023/08/08 12:15:08;;;;;;;2.08;0.50;;;17.90;63.10;;;;;;5006461;28;20055;-74
2023/08/08 12:17:35;;;;;;;3.88;0.52;;;18.00;59.90;;;;;;5005925;28;20054;-73
2023/08/08 12:20:05;;;;;;;3.33;0.90;;;18.00;59.50;;;;;;5009865;28;20089;-73
2023/08/08 12:22:32;;;;;;;3.00;0.70;;;18.00;58.50;;;;;;5011149;28;20058;-74
2023/08/08 12:24:59;;;;;;;4.60;0.55;;;18.00;59.70;;;;;;5009936;28;20273;-73
2023/08/08 12:27:26;;;;;;;4.35;0.85;;;18.00;59.60;;;;;;5010815;28;20125;-74
2023/08/08 12:29:53;;;;;;;5.32;0.90;;;18.00;60.40;;;;;;5010489;28;20456;-73
2023/08/08 12:32:23;;;;;;;4.30;0.70;;;18.00;60.20;;;;;;5002905;28;20509;-74
2023/08/08 12:34:50;;;;;;;4.30;0.70;;;18.00;60.80;;;;;;5005738;28;20050;-73
2023/08/08 12:37:17;;;;;;;2.70;0.50;;;18.10;60.80;;;;;;5008859;28;20262;-73
2023/08/08 12:39:44;;;;;;;2.47;0.80;;;18.10;60.60;;;;;;5008376;28;20141;-74
2023/08/08 12:42:11;;;;;;;3.17;0.60;;;18.20;60.60;;;;;;4992406;28;20988;-74
2023/08/08 12:44:38;;;;;;;4.85;0.80;;;18.20;61.00;;;;;;5009370;28;20051;-74
2023/08/08 12:47:05;;;;;;;7.03;0.93;;;18.30;61.10;;;;;;4992289;28;20121;-72
2023/08/08 12:49:33;;;;;;;3.70;0.98;;;18.30;61.40;;;;;;5021083;28;20258;-74